Time;durP1;ratioP1;P1;durP2;ratioP2;P2;SDS_P1;SDS_P2;PMS_P1;PMS_P2;Temp;Humidity;BMP_temperature;BMP_pressure;BME280_temperature;BME280_humidity;BME280_pressure;Samples;Min_cycle;Max_cycle;Signal;HPM_P1;HPM_P2
2022/10/12 00:01:54;;;;;;;1.70;1.17;;;9.80;99.20;;;;;;5123101;27;20078;-75
2022/10/12 00:04:19;;;;;;;1.73;1.20;;;9.80;99.30;;;;;;5141152;27;20126;-75
2022/10/12 00:06:45;;;;;;;2.15;1.17;;;9.80;99.20;;;;;;5141386;27;20046;-75
2022/10/12 00:09:11;;;;;;;2.17;1.10;;;9.80;99.20;;;;;;5123216;27;20046;-75
2022/10/12 00:11:39;;;;;;;2.53;1.00;;;9.70;99.20;;;;;;5141376;27;20086;-75
2022/10/12 00:14:05;;;;;;;2.17;1.20;;;9.70;99.20;;;;;;5122626;27;20443;-75
2022/10/12 00:16:31;;;;;;;2.38;1.00;;;9.70;99.50;;;;;;5122539;27;20108;-75
2022/10/12 00:18:57;;;;;;;2.53;1.00;;;9.80;99.40;;;;;;5141091;27;20062;-75
2022/10/12 00:21:25;;;;;;;1.70;1.20;;;9.70;99.30;;;;;;5122657;27;20047;-75
2022/10/12 00:23:51;;;;;;;1.92;1.02;;;9.70;99.40;;;;;;5122200;27;20376;-75
2022/10/12 00:26:21;;;;;;;2.10;1.20;;;9.70;99.30;;;;;;5122794;27;20057;-75
2022/10/12 00:28:47;;;;;;;2.63;1.33;;;9.80;99.30;;;;;;5122824;27;20147;-75
2022/10/12 00:31:19;;;;;;;2.47;1.27;;;9.70;99.20;;;;;;5122532;27;20168;-75
2022/10/12 00:33:46;;;;;;;1.63;1.17;;;9.70;99.30;;;;;;5140624;27;20451;-75
2022/10/12 00:36:19;;;;;;;1.75;1.00;;;9.70;99.40;;;;;;5122385;27;20031;-75
2022/10/12 00:38:46;;;;;;;3.05;1.30;;;9.80;99.40;;;;;;5122358;27;20043;-75
2022/10/12 00:41:13;;;;;;;2.45;1.30;;;9.80;99.50;;;;;;5121963;27;20043;-75
2022/10/12 00:43:40;;;;;;;2.33;1.65;;;9.80;99.30;;;;;;5140664;27;20058;-75
2022/10/12 00:46:21;;;;;;;5.57;1.83;;;9.80;99.20;;;;;;5140360;27;20122;-75
2022/10/12 00:48:52;;;;;;;3.63;1.80;;;9.70;99.30;;;;;;5140489;27;20076;-75
2022/10/12 00:51:19;;;;;;;5.80;2.10;;;9.80;99.40;;;;;;5140523;27;20035;-75
2022/10/12 00:53:52;;;;;;;4.85;1.90;;;9.70;99.30;;;;;;5121621;27;20043;-74
2022/10/12 00:56:22;;;;;;;4.50;2.10;;;9.60;99.30;;;;;;5122053;27;20159;-75
2022/10/12 00:58:49;;;;;;;6.68;2.25;;;9.60;99.20;;;;;;5140395;27;20070;-75
2022/10/12 01:01:15;;;;;;;6.75;2.80;;;9.60;99.30;;;;;;5105069;27;20117;-75
2022/10/12 01:03:41;;;;;;;6.53;2.67;;;9.60;99.30;;;;;;5140294;27;20039;-75
2022/10/12 01:06:07;;;;;;;8.75;2.50;;;9.50;99.30;;;;;;5121794;27;20111;-75
2022/10/12 01:08:35;;;;;;;4.38;2.20;;;9.50;99.40;;;;;;5140195;27;20310;-75
2022/10/12 01:11:01;;;;;;;8.07;2.60;;;9.40;99.40;;;;;;5140173;27;20036;-75
2022/10/12 01:13:27;;;;;;;6.88;2.65;;;9.40;99.50;;;;;;5140462;27;20042;-76
2022/10/12 01:16:17;;;;;;;6.93;2.47;;;9.40;99.50;;;;;;5139732;27;20054;-75
2022/10/12 01:18:49;;;;;;;6.63;2.90;;;9.50;99.50;;;;;;5104526;27;20050;-75
2022/10/12 01:21:20;;;;;;;6.50;2.45;;;9.50;99.40;;;;;;5121850;27;20463;-76
2022/10/12 01:24:20;;;;;;;7.28;2.65;;;9.50;99.30;;;;;;5139489;27;20035;-75
2022/10/12 01:27:12;;;;;;;6.18;2.80;;;9.50;99.30;;;;;;5121334;27;20043;-75
2022/10/12 01:30:05;;;;;;;8.25;2.95;;;9.40;99.40;;;;;;5139477;27;20039;-75
2022/10/12 01:32:34;;;;;;;5.68;2.67;;;9.50;99.40;;;;;;5121317;27;20114;-75
2022/10/12 01:35:14;;;;;;;4.35;2.70;;;9.40;99.30;;;;;;5104828;27;20043;-75
2022/10/12 01:37:55;;;;;;;6.20;3.20;;;9.40;99.30;;;;;;5139662;27;20035;-76
2022/10/12 01:40:41;;;;;;;5.85;2.35;;;9.30;99.30;;;;;;5139645;27;20039;-75
2022/10/12 01:43:07;;;;;;;6.60;2.45;;;9.30;99.40;;;;;;5121109;27;20439;-75
2022/10/12 01:45:33;;;;;;;8.02;2.95;;;9.20;99.40;;;;;;5121075;27;20071;-75
2022/10/12 01:48:00;;;;;;;6.03;2.63;;;9.30;99.50;;;;;;5139453;27;20398;-75
2022/10/12 01:50:34;;;;;;;5.72;2.50;;;9.30;99.50;;;;;;5139383;27;20047;-75
2022/10/12 01:53:14;;;;;;;5.82;2.50;;;9.30;99.40;;;;;;5138264;27;20031;-75
2022/10/12 01:56:06;;;;;;;6.55;2.75;;;9.20;99.40;;;;;;5120827;27;20043;-75
2022/10/12 01:59:03;;;;;;;5.95;2.95;;;9.30;99.40;;;;;;5103846;27;20053;-75
2022/10/12 02:01:37;;;;;;;4.93;2.50;;;9.30;99.40;;;;;;5139276;27;20039;-75
2022/10/12 02:04:15;;;;;;;4.40;2.05;;;9.20;99.30;;;;;;5121345;27;20096;-75
2022/10/12 02:06:56;;;;;;;5.65;2.40;;;9.20;99.30;;;;;;5120669;27;20047;-75
2022/10/12 02:09:32;;;;;;;4.57;2.38;;;9.30;99.50;;;;;;5120517;27;20039;-75
2022/10/12 02:12:07;;;;;;;4.85;2.30;;;9.30;99.60;;;;;;5139028;27;20071;-75
2022/10/12 02:14:45;;;;;;;7.05;2.92;;;9.30;99.40;;;;;;5138957;27;20312;-75
2022/10/12 02:17:15;;;;;;;4.82;2.65;;;9.20;99.40;;;;;;5120500;27;20081;-75
2022/10/12 02:19:47;;;;;;;6.55;2.72;;;9.20;99.40;;;;;;5138837;27;20084;-75
2022/10/12 02:22:14;;;;;;;7.38;3.13;;;9.20;99.40;;;;;;5138500;27;20358;-75
2022/10/12 02:24:44;;;;;;;6.45;3.05;;;9.20;99.60;;;;;;5138303;27;20075;-75
2022/10/12 02:27:12;;;;;;;5.53;3.03;;;9.40;99.80;;;;;;5103214;27;20051;-75
2022/10/12 02:29:40;;;;;;;7.40;2.92;;;9.50;99.70;;;;;;5120149;27;20332;-75
2022/10/12 02:32:42;;;;;;;6.55;2.72;;;9.50;99.60;;;;;;5138570;27;20370;-75
2022/10/12 02:35:26;;;;;;;6.35;2.80;;;9.40;99.50;;;;;;5120353;27;20043;-75
2022/10/12 02:38:00;;;;;;;6.25;2.65;;;9.50;99.70;;;;;;5138523;27;20041;-76
2022/10/12 02:40:40;;;;;;;6.45;3.33;;;9.50;99.70;;;;;;5120364;27;20049;-75
2022/10/12 02:43:35;;;;;;;3.95;2.85;;;9.40;99.70;;;;;;5120103;27;20483;-75
2022/10/12 02:46:06;;;;;;;5.97;2.92;;;9.50;99.70;;;;;;5128968;27;20042;-75
2022/10/12 02:48:34;;;;;;;9.90;3.22;;;9.50;99.70;;;;;;5120201;27;20046;-75
2022/10/12 02:51:01;;;;;;;6.40;3.05;;;9.50;99.70;;;;;;5138292;27;20358;-75
2022/10/12 02:53:29;;;;;;;8.05;3.55;;;9.50;99.80;;;;;;5137809;27;20293;-75
2022/10/12 02:56:01;;;;;;;6.22;2.88;;;9.60;99.80;;;;;;5138168;27;20039;-75
2022/10/12 02:58:27;;;;;;;7.47;3.42;;;9.70;99.70;;;;;;5119740;27;20077;-75
2022/10/12 03:00:53;;;;;;;5.10;2.80;;;9.60;99.70;;;;;;5119852;27;20070;-75
2022/10/12 03:03:18;;;;;;;9.90;3.38;;;9.60;99.60;;;;;;5138050;27;20045;-75
2022/10/12 03:05:44;;;;;;;6.85;3.28;;;9.60;99.60;;;;;;5138016;27;20328;-75
2022/10/12 03:08:10;;;;;;;8.43;3.15;;;9.60;99.70;;;;;;5137920;27;20035;-75
2022/10/12 03:10:36;;;;;;;6.20;2.97;;;9.60;99.60;;;;;;5137955;27;20042;-75
2022/10/12 03:13:02;;;;;;;7.00;3.13;;;9.60;99.60;;;;;;5137931;27;20494;-75
2022/10/12 03:15:27;;;;;;;9.18;2.88;;;9.60;99.60;;;;;;5137552;27;20050;-76
2022/10/12 03:17:53;;;;;;;7.43;3.28;;;9.60;99.60;;;;;;5137551;27;20084;-76
2022/10/12 03:20:19;;;;;;;5.97;2.50;;;9.60;99.60;;;;;;5102470;27;20039;-75
2022/10/12 03:22:45;;;;;;;5.95;2.97;;;9.60;99.50;;;;;;5118961;27;20053;-75
2022/10/12 03:25:11;;;;;;;6.40;2.80;;;9.50;99.50;;;;;;5137762;28;20039;-75
2022/10/12 03:27:36;;;;;;;7.00;2.53;;;9.50;99.50;;;;;;5137550;28;20332;-75
2022/10/12 03:30:02;;;;;;;5.88;2.75;;;9.40;99.50;;;;;;5137662;28;20043;-75
2022/10/12 03:32:28;;;;;;;7.68;2.95;;;9.40;99.50;;;;;;5119447;28;20412;-75
2022/10/12 03:34:54;;;;;;;6.13;3.20;;;9.40;99.60;;;;;;5119615;28;20122;-75
2022/10/12 03:37:19;;;;;;;7.50;2.85;;;9.30;99.70;;;;;;5119522;28;20477;-75
2022/10/12 03:39:45;;;;;;;6.40;2.97;;;9.40;99.60;;;;;;5137357;28;20508;-75
2022/10/12 03:42:10;;;;;;;7.47;2.88;;;9.40;99.60;;;;;;5119257;28;20104;-75
2022/10/12 03:44:36;;;;;;;9.20;3.05;;;9.40;99.60;;;;;;5119359;28;20043;-75
2022/10/12 03:47:02;;;;;;;9.30;2.80;;;9.20;99.50;;;;;;5137628;28;20438;-75
2022/10/12 03:49:28;;;;;;;5.10;2.65;;;9.20;99.70;;;;;;5119027;28;20122;-75
2022/10/12 03:51:53;;;;;;;6.65;2.35;;;9.30;99.70;;;;;;5137581;28;20043;-74
2022/10/12 03:54:19;;;;;;;6.00;2.40;;;9.30;99.80;;;;;;5136882;28;20328;-75
2022/10/12 03:56:45;;;;;;;5.75;2.03;;;9.30;99.80;;;;;;5119159;28;20039;-75
2022/10/12 03:59:10;;;;;;;5.20;2.03;;;9.40;99.70;;;;;;5137477;28;20075;-75
2022/10/12 04:01:36;;;;;;;4.28;1.70;;;9.30;99.70;;;;;;5137480;28;20043;-75
2022/10/12 04:04:02;;;;;;;7.45;2.22;;;9.40;99.70;;;;;;5137426;28;20030;-75
2022/10/12 04:06:27;;;;;;;7.10;1.90;;;9.40;99.80;;;;;;5137453;28;20077;-75
2022/10/12 04:08:53;;;;;;;7.43;2.10;;;9.40;99.80;;;;;;5137298;28;20043;-75
2022/10/12 04:11:19;;;;;;;6.15;2.22;;;9.50;99.80;;;;;;5118920;28;20110;-75
2022/10/12 04:13:45;;;;;;;5.95;2.05;;;9.50;99.70;;;;;;5137286;28;20039;-75
2022/10/12 04:16:11;;;;;;;8.48;2.60;;;9.50;99.60;;;;;;5137630;27;20105;-75
2022/10/12 04:18:37;;;;;;;7.25;2.20;;;9.40;99.70;;;;;;5105980;27;20047;-75
2022/10/12 04:21:08;;;;;;;5.68;1.85;;;9.40;99.70;;;;;;5140857;27;20087;-75
2022/10/12 04:23:34;;;;;;;7.15;2.53;;;9.50;99.80;;;;;;5140817;27;20393;-75
2022/10/12 04:26:00;;;;;;;8.57;2.30;;;9.40;99.70;;;;;;5123023;27;20066;-75
2022/10/12 04:28:25;;;;;;;4.95;2.40;;;9.40;99.70;;;;;;5122876;27;20035;-75
2022/10/12 04:30:51;;;;;;;6.00;2.55;;;9.30;99.70;;;;;;5140663;27;20039;-75
2022/10/12 04:33:17;;;;;;;9.57;2.42;;;9.30;99.80;;;;;;5140581;27;20042;-75
2022/10/12 04:35:42;;;;;;;3.58;2.25;;;9.30;99.90;;;;;;5122704;27;20039;-75
2022/10/12 04:38:08;;;;;;;4.78;2.00;;;9.40;99.90;;;;;;5140545;27;20412;-75
2022/10/12 04:40:34;;;;;;;7.88;2.25;;;9.30;99.80;;;;;;5140504;27;20038;-75
2022/10/12 04:42:59;;;;;;;7.35;2.50;;;9.30;99.90;;;;;;5140496;27;20063;-75
2022/10/12 04:45:25;;;;;;;7.35;2.50;;;9.30;99.80;;;;;;5122364;27;20332;-75
2022/10/12 04:47:51;;;;;;;5.20;2.28;;;9.30;99.90;;;;;;5121928;27;20039;-75
2022/10/12 04:50:17;;;;;;;7.20;2.67;;;9.20;99.80;;;;;;5122182;27;20047;-74
2022/10/12 04:52:42;;;;;;;7.28;2.40;;;9.30;99.80;;;;;;5140010;27;20305;-75
2022/10/12 04:55:08;;;;;;;7.70;2.30;;;9.30;99.80;;;;;;5140321;27;20039;-75
2022/10/12 04:57:34;;;;;;;6.95;2.80;;;9.20;99.80;;;;;;5140459;27;20027;-75
2022/10/12 04:59:59;;;;;;;3.40;1.75;;;9.20;99.70;;;;;;5105769;27;20447;-75
2022/10/12 05:02:25;;;;;;;6.65;2.35;;;9.20;99.80;;;;;;5121848;27;20051;-75
2022/10/12 05:04:51;;;;;;;7.03;2.55;;;9.20;99.80;;;;;;5104897;27;20054;-75
2022/10/12 05:07:16;;;;;;;6.75;2.30;;;9.20;99.80;;;;;;5140266;27;20046;-75
2022/10/12 05:09:42;;;;;;;9.25;2.50;;;9.20;99.80;;;;;;5122049;27;20047;-75
2022/10/12 05:12:08;;;;;;;10.23;2.45;;;9.20;99.80;;;;;;5104715;27;20043;-75
2022/10/12 05:14:33;;;;;;;8.35;2.63;;;9.20;99.90;;;;;;5140112;27;20130;-75
2022/10/12 05:16:59;;;;;;;8.80;2.13;;;9.20;99.70;;;;;;5121519;27;20052;-75
2022/10/12 05:19:25;;;;;;;6.68;2.28;;;9.20;99.70;;;;;;5121984;27;20067;-75
2022/10/12 05:21:52;;;;;;;4.03;2.40;;;9.10;99.70;;;;;;5121826;27;20054;-75
2022/10/12 05:24:17;;;;;;;8.25;2.60;;;9.10;99.70;;;;;;5139212;27;20480;-75
2022/10/12 05:26:43;;;;;;;7.75;2.35;;;9.10;99.60;;;;;;5139588;27;20038;-75
2022/10/12 05:29:09;;;;;;;4.97;2.45;;;9.00;99.70;;;;;;5120187;27;20176;-75
2022/10/12 05:31:34;;;;;;;6.38;2.45;;;9.00;99.80;;;;;;5104428;27;20070;-75
2022/10/12 05:34:00;;;;;;;7.38;3.00;;;8.90;99.70;;;;;;5121717;27;20110;-75
2022/10/12 05:36:25;;;;;;;9.90;3.00;;;8.90;99.70;;;;;;5139753;27;20360;-75
2022/10/12 05:38:51;;;;;;;10.27;3.05;;;8.90;99.70;;;;;;5139634;27;20039;-75
2022/10/12 05:41:17;;;;;;;6.55;2.80;;;8.90;99.80;;;;;;5121296;27;20042;-75
2022/10/12 05:43:42;;;;;;;6.18;2.63;;;8.90;99.70;;;;;;5139573;27;20424;-75
2022/10/12 05:46:08;;;;;;;8.32;2.70;;;8.90;99.80;;;;;;5139491;27;20334;-75
2022/10/12 05:48:34;;;;;;;7.82;3.33;;;8.90;99.70;;;;;;5103908;27;20051;-75
2022/10/12 05:50:59;;;;;;;7.03;2.97;;;8.80;99.70;;;;;;5121294;27;20110;-75
2022/10/12 05:53:26;;;;;;;7.70;2.97;;;8.90;99.70;;;;;;5138643;27;20356;-75
2022/10/12 05:55:59;;;;;;;6.78;3.15;;;8.80;99.70;;;;;;5139277;27;20039;-75
2022/10/12 05:58:27;;;;;;;8.13;3.20;;;8.90;99.80;;;;;;5121249;27;20131;-75
2022/10/12 06:00:53;;;;;;;4.63;2.65;;;8.80;99.70;;;;;;5139165;27;20035;-75
2022/10/12 06:03:20;;;;;;;7.38;2.95;;;8.80;99.60;;;;;;5139162;27;20377;-75
2022/10/12 06:05:46;;;;;;;7.68;3.00;;;8.80;99.70;;;;;;5139137;27;20146;-75
2022/10/12 06:08:12;;;;;;;7.35;3.10;;;8.80;99.70;;;;;;5120558;27;20077;-75
2022/10/12 06:10:45;;;;;;;5.38;2.55;;;8.80;99.90;;;;;;5139003;27;20039;-75
2022/10/12 06:13:11;;;;;;;6.78;3.20;;;8.90;99.80;;;;;;5120830;27;20057;-75
2022/10/12 06:15:38;;;;;;;11.85;3.75;;;8.90;99.70;;;;;;5138680;27;20440;-75
2022/10/12 06:18:04;;;;;;;9.80;3.75;;;8.90;99.70;;;;;;5103836;27;20078;-77
2022/10/12 06:20:29;;;;;;;10.80;4.57;;;8.90;99.70;;;;;;5138600;27;20082;-75
2022/10/12 06:22:55;;;;;;;9.80;3.45;;;9.00;99.70;;;;;;5120311;27;20046;-75
2022/10/12 06:25:20;;;;;;;11.10;4.10;;;9.00;99.70;;;;;;5120330;27;20134;-75
2022/10/12 06:27:46;;;;;;;16.83;3.85;;;9.10;99.60;;;;;;5138689;27;20118;-71
2022/10/12 06:30:12;;;;;;;9.02;3.60;;;9.00;99.60;;;;;;5120197;27;20139;-78
2022/10/12 06:32:38;;;;;;;7.75;3.70;;;9.00;99.60;;;;;;5103167;27;20035;-72
2022/10/12 06:35:04;;;;;;;15.02;4.85;;;9.00;99.60;;;;;;5138614;27;20061;-74
2022/10/12 06:37:31;;;;;;;10.13;4.30;;;9.00;99.60;;;;;;5138506;27;20031;-71
2022/10/12 06:39:57;;;;;;;11.05;3.97;;;9.10;99.60;;;;;;5138210;27;20297;-71
2022/10/12 06:42:22;;;;;;;10.40;4.35;;;9.10;99.60;;;;;;5138125;27;20043;-71
2022/10/12 06:44:48;;;;;;;12.57;4.18;;;9.10;99.60;;;;;;5138422;27;20039;-71
2022/10/12 06:47:14;;;;;;;13.70;4.30;;;9.20;99.60;;;;;;5138337;27;20027;-71
2022/10/12 06:49:40;;;;;;;13.02;4.15;;;9.20;99.60;;;;;;5138163;27;20485;-71
2022/10/12 06:52:05;;;;;;;12.27;4.10;;;9.20;99.50;;;;;;5138271;27;20092;-71
2022/10/12 06:54:31;;;;;;;10.32;4.13;;;9.20;99.50;;;;;;5119384;27;20344;-71
2022/10/12 06:56:57;;;;;;;10.23;4.53;;;9.30;99.60;;;;;;5138193;27;20215;-71
2022/10/12 06:59:22;;;;;;;8.73;4.03;;;9.30;99.60;;;;;;5137843;27;20046;-72
2022/10/12 07:01:48;;;;;;;15.25;4.07;;;9.40;99.60;;;;;;5137791;27;20039;-71
2022/10/12 07:04:15;;;;;;;9.70;3.95;;;9.50;99.60;;;;;;5137771;27;20509;-72
2022/10/12 07:06:41;;;;;;;10.23;3.83;;;9.50;99.60;;;;;;5137995;27;20039;-72
2022/10/12 07:09:07;;;;;;;11.75;4.85;;;9.40;99.60;;;;;;5137948;27;20100;-72
2022/10/12 07:11:33;;;;;;;11.30;3.97;;;9.50;99.70;;;;;;5137989;27;20366;-71
2022/10/12 07:13:58;;;;;;;13.50;4.47;;;9.50;99.70;;;;;;5137970;27;20035;-72
2022/10/12 07:16:24;;;;;;;13.00;4.15;;;9.60;99.80;;;;;;5137588;27;20340;-72
2022/10/12 07:18:50;;;;;;;9.38;4.20;;;9.70;99.70;;;;;;5137875;27;20043;-73
2022/10/12 07:21:15;;;;;;;10.93;4.47;;;9.80;99.70;;;;;;5137825;27;20122;-72
2022/10/12 07:23:41;;;;;;;10.63;5.05;;;9.80;99.70;;;;;;5137547;27;20042;-72
2022/10/12 07:26:08;;;;;;;14.38;5.47;;;9.90;99.80;;;;;;5137805;27;20043;-71
2022/10/12 07:28:35;;;;;;;11.90;5.07;;;10.00;99.70;;;;;;5137344;28;20455;-72
2022/10/12 07:31:03;;;;;;;13.70;5.63;;;10.10;99.80;;;;;;5137767;28;20035;-72
2022/10/12 07:33:37;;;;;;;12.85;5.82;;;10.10;99.80;;;;;;5137759;28;20042;-72
2022/10/12 07:36:04;;;;;;;16.27;6.00;;;10.20;99.80;;;;;;5137437;28;20424;-72
2022/10/12 07:38:30;;;;;;;15.95;6.22;;;10.30;99.80;;;;;;5119313;28;20131;-72
2022/10/12 07:41:00;;;;;;;13.77;5.50;;;10.30;99.90;;;;;;5137667;28;20042;-72
2022/10/12 07:43:30;;;;;;;19.90;6.95;;;10.30;99.90;;;;;;5119500;28;20361;-72
2022/10/12 07:45:56;;;;;;;15.50;6.32;;;10.40;99.90;;;;;;5137643;28;20046;-72
2022/10/12 07:48:22;;;;;;;15.75;6.82;;;10.50;99.90;;;;;;5137534;28;20031;-72
2022/10/12 07:50:48;;;;;;;12.30;5.82;;;10.60;99.80;;;;;;5119409;27;20328;-72
2022/10/12 07:53:14;;;;;;;17.20;6.75;;;10.60;99.80;;;;;;5141384;27;20114;-72
2022/10/12 07:55:39;;;;;;;19.67;7.28;;;10.70;99.90;;;;;;5141693;27;20080;-72
2022/10/12 07:58:05;;;;;;;16.85;7.28;;;10.80;99.90;;;;;;5123484;27;20364;-72
2022/10/12 08:00:31;;;;;;;21.27;7.95;;;10.90;99.90;;;;;;5141545;27;20118;-72
2022/10/12 08:02:57;;;;;;;17.15;7.97;;;10.80;99.70;;;;;;5141244;27;20039;-72
2022/10/12 08:05:24;;;;;;;19.10;8.65;;;10.80;99.80;;;;;;5123400;27;20039;-72
2022/10/12 08:07:51;;;;;;;24.17;8.07;;;10.70;99.90;;;;;;5141440;27;20328;-72
2022/10/12 08:10:17;;;;;;;24.20;8.82;;;10.80;99.90;;;;;;5141320;27;20091;-72
2022/10/12 08:12:45;;;;;;;22.13;8.20;;;10.90;99.90;;;;;;5141317;27;20035;-72
2022/10/12 08:15:12;;;;;;;22.65;8.55;;;11.00;99.90;;;;;;5141073;27;20035;-73
2022/10/12 08:17:38;;;;;;;5.32;2.85;;;11.00;99.90;;;;;;5141342;27;20088;-86
2022/10/12 08:20:05;;;;;;;20.20;8.55;;;11.20;99.90;;;;;;5106342;27;20079;-72
2022/10/12 08:22:31;;;;;;;20.90;8.57;;;11.30;99.90;;;;;;5141222;27;20050;-72
2022/10/12 08:24:57;;;;;;;20.83;8.52;;;11.30;99.90;;;;;;5141768;27;20032;-72
2022/10/12 08:27:22;;;;;;;17.73;8.70;;;11.40;99.90;;;;;;5141353;27;20039;-70
2022/10/12 08:29:48;;;;;;;25.25;10.00;;;11.50;99.90;;;;;;5140707;27;20039;-70
2022/10/12 08:32:14;;;;;;;23.70;9.80;;;11.60;99.90;;;;;;5140651;27;20032;-71
2022/10/12 08:34:40;;;;;;;21.65;9.25;;;11.70;99.90;;;;;;5140937;27;20049;-71
2022/10/12 08:37:05;;;;;;;21.08;8.93;;;11.70;99.90;;;;;;5140864;27;20443;-71
2022/10/12 08:39:31;;;;;;;19.00;9.50;;;11.90;99.90;;;;;;5140839;27;20115;-71
2022/10/12 08:42:02;;;;;;;26.23;9.63;;;12.00;99.90;;;;;;5140762;27;20046;-71
2022/10/12 08:44:40;;;;;;;26.05;9.32;;;12.20;99.90;;;;;;5122564;27;20046;-70
2022/10/12 08:47:37;;;;;;;19.70;8.52;;;12.30;99.90;;;;;;5140712;27;20043;-70
2022/10/12 08:50:05;;;;;;;25.55;8.40;;;12.40;99.80;;;;;;5140580;27;20054;-71
2022/10/12 08:52:36;;;;;;;19.15;8.35;;;12.50;99.90;;;;;;5140589;27;20366;-70
2022/10/12 08:55:35;;;;;;;15.85;7.82;;;12.60;99.80;;;;;;5121774;27;20039;-70
2022/10/12 08:58:02;;;;;;;19.88;9.00;;;12.60;99.70;;;;;;5140464;27;20039;-70
2022/10/12 09:00:30;;;;;;;20.67;7.97;;;12.70;99.70;;;;;;5140463;27;20088;-70
2022/10/12 09:03:16;;;;;;;16.17;7.35;;;12.60;99.40;;;;;;5140244;27;20042;-70
2022/10/12 09:05:52;;;;;;;20.40;8.15;;;12.70;99.50;;;;;;5140414;27;20328;-70
2022/10/12 09:08:23;;;;;;;;;;;12.70;99.50;;;;;;5140829;27;20039;-70
2022/10/12 09:11:05;;;;;;;17.67;5.65;;;12.80;99.30;;;;;;5140255;27;20033;-70
2022/10/12 09:13:54;;;;;;;13.57;6.82;;;12.70;99.40;;;;;;5139957;27;20421;-70
2022/10/12 09:16:23;;;;;;;23.60;6.07;;;12.70;99.40;;;;;;5121566;27;20058;-70
2022/10/12 09:18:53;;;;;;;14.98;5.95;;;12.70;99.20;;;;;;5136138;27;20031;-71
2022/10/12 09:21:20;;;;;;;19.17;5.53;;;12.80;99.10;;;;;;5117954;28;20122;-75
2022/10/12 09:23:48;;;;;;;17.27;5.72;;;12.90;99.10;;;;;;5100515;28;20039;-71
2022/10/12 09:26:34;;;;;;;15.18;6.10;;;12.80;98.90;;;;;;5101071;28;20046;-71
2022/10/12 09:29:02;;;;;;;16.90;6.05;;;12.80;99.10;;;;;;5119269;28;20058;-71
2022/10/12 09:32:09;;;;;;;14.20;5.65;;;12.80;98.80;;;;;;5119248;28;20028;-73
2022/10/12 09:34:35;;;;;;;13.05;4.60;;;12.70;98.70;;;;;;5114865;28;20040;-70
2022/10/12 09:37:04;;;;;;;13.85;5.07;;;12.70;98.70;;;;;;5119197;28;20373;-69
2022/10/12 09:39:35;;;;;;;15.77;4.90;;;12.80;98.70;;;;;;5101339;28;20440;-70
2022/10/12 09:42:01;;;;;;;12.85;3.78;;;12.90;98.70;;;;;;5119025;28;20042;-70
2022/10/12 09:44:29;;;;;;;14.02;4.70;;;13.00;98.50;;;;;;5118726;28;20336;-69
2022/10/12 09:46:58;;;;;;;9.75;4.07;;;13.20;98.40;;;;;;5118668;28;20123;-69
2022/10/12 09:49:44;;;;;;;17.58;5.00;;;13.30;98.10;;;;;;5118847;28;20044;-70
2022/10/12 09:52:12;;;;;;;13.65;4.10;;;13.40;98.10;;;;;;5118849;28;20039;-70
2022/10/12 09:55:10;;;;;;;16.25;4.38;;;13.60;98.20;;;;;;5118068;28;20508;-69
2022/10/12 09:57:40;;;;;;;21.52;3.97;;;13.70;97.60;;;;;;5090556;28;20048;-69
2022/10/12 10:00:26;;;;;;;17.98;3.90;;;14.00;97.80;;;;;;5118684;28;20040;-69
2022/10/12 10:02:53;;;;;;;9.80;3.30;;;14.40;98.10;;;;;;5118665;28;20120;-70
2022/10/12 10:05:31;;;;;;;17.83;3.85;;;14.60;97.30;;;;;;5118292;28;20497;-69
2022/10/12 10:08:18;;;;;;;10.95;3.00;;;14.70;97.60;;;;;;5118424;28;20328;-69
2022/10/12 10:10:51;;;;;;;;;;;14.80;96.70;;;;;;5118938;28;20044;-70
2022/10/12 10:13:18;;;;;;;13.15;2.95;;;15.10;97.20;;;;;;5119107;28;20221;-70
2022/10/12 10:15:49;;;;;;;12.02;3.03;;;15.30;96.70;;;;;;5117483;28;20055;-69
2022/10/12 10:18:33;;;;;;;10.68;3.08;;;15.50;96.70;;;;;;5118577;28;20113;-68
2022/10/12 10:21:00;;;;;;;9.93;2.90;;;15.80;96.90;;;;;;5118844;28;20301;-68
2022/10/12 10:23:28;;;;;;;8.25;2.47;;;16.00;96.90;;;;;;5117809;28;20046;-69
2022/10/12 10:26:15;;;;;;;9.63;2.42;;;16.10;96.40;;;;;;5118206;28;20042;-70
2022/10/12 10:28:55;;;;;;;9.50;2.25;;;16.30;96.70;;;;;;5117661;28;20476;-71
2022/10/12 10:31:26;;;;;;;9.48;2.40;;;16.50;96.60;;;;;;5118166;28;20321;-69
2022/10/12 10:34:16;;;;;;;12.07;2.60;;;16.70;96.30;;;;;;5118178;28;20051;-69
2022/10/12 10:37:02;;;;;;;9.13;2.20;;;16.40;95.60;;;;;;5118019;28;20034;-69
2022/10/12 10:39:51;;;;;;;11.98;2.50;;;16.60;96.50;;;;;;5096150;28;20043;-70
2022/10/12 10:42:36;;;;;;;11.10;2.38;;;16.60;96.00;;;;;;5109895;28;20088;-69
2022/10/12 10:45:25;;;;;;;11.00;2.05;;;16.70;96.70;;;;;;5115988;28;20046;-73
2022/10/12 10:48:19;;;;;;;12.05;2.15;;;16.80;96.20;;;;;;5112155;28;20038;-71
2022/10/12 10:50:55;;;;;;;11.38;2.30;;;17.30;96.20;;;;;;5115104;28;20044;-68
2022/10/12 10:53:25;;;;;;;;;;;17.20;95.30;;;;;;5116959;28;20043;-70
2022/10/12 10:56:24;;;;;;;10.00;2.47;;;17.40;95.00;;;;;;5117526;28;19922;-70
2022/10/12 10:58:56;;;;;;;9.10;2.00;;;17.90;95.50;;;;;;5117615;28;20050;-73
2022/10/12 11:01:34;;;;;;;12.07;2.47;;;18.20;95.20;;;;;;5117278;28;20424;-69
2022/10/12 11:04:16;;;;;;;9.02;2.22;;;18.60;95.40;;;;;;5117272;28;20429;-71
2022/10/12 11:06:46;;;;;;;15.38;2.15;;;18.90;94.80;;;;;;5119631;28;20075;-72
2022/10/12 11:09:32;;;;;;;17.42;2.45;;;19.00;94.70;;;;;;5099351;28;20050;-71
2022/10/12 11:12:08;;;;;;;11.15;1.92;;;19.10;94.60;;;;;;5066348;28;20040;-86
2022/10/12 11:14:44;;;;;;;8.07;2.00;;;18.90;94.40;;;;;;5082359;28;20042;-82
2022/10/12 11:17:13;;;;;;;;;;;18.60;94.30;;;;;;5117500;28;20055;-78
2022/10/12 11:19:50;;;;;;;11.07;1.63;;;18.30;94.10;;;;;;5117379;28;19916;-76
2022/10/12 11:22:31;;;;;;;14.10;1.88;;;18.10;94.70;;;;;;5117373;28;20043;-81
2022/10/12 11:25:18;;;;;;;5.80;1.60;;;18.10;93.70;;;;;;5098551;28;20123;-81
2022/10/12 11:27:44;;;;;;;9.32;1.77;;;18.20;94.20;;;;;;5098871;28;20086;-69
2022/10/12 11:30:19;;;;;;;8.18;1.63;;;18.10;94.00;;;;;;5107055;28;20086;-69
2022/10/12 11:32:53;;;;;;;9.63;1.50;;;18.50;94.40;;;;;;5109679;28;20058;-72
2022/10/12 11:35:32;;;;;;;7.15;1.60;;;18.80;93.40;;;;;;5111160;28;20084;-84
2022/10/12 11:38:06;;;;;;;7.10;1.48;;;19.20;93.80;;;;;;5098660;28;20031;-69
2022/10/12 11:41:01;;;;;;;6.47;1.50;;;19.40;93.50;;;;;;5117081;28;20110;-76
2022/10/12 11:43:37;;;;;;;5.00;1.40;;;19.80;93.50;;;;;;5107336;28;20056;-69
2022/10/12 11:46:06;;;;;;;;;;;19.60;92.90;;;;;;5117295;28;20417;-69
2022/10/12 11:48:39;;;;;;;8.45;1.65;;;20.20;92.70;;;;;;5117008;28;19915;-67
2022/10/12 11:51:06;;;;;;;7.70;1.85;;;20.40;92.10;;;;;;5117071;28;20043;-68
2022/10/12 11:53:31;;;;;;;9.82;1.70;;;21.00;92.30;;;;;;5116564;28;20317;-68
2022/10/12 11:56:50;;;;;;;6.90;1.40;;;21.10;92.00;;;;;;5116968;28;20032;-70
2022/10/12 11:59:28;;;;;;;3.75;1.33;;;21.60;91.80;;;;;;5075147;28;20063;-69
2022/10/12 12:02:15;;;;;;;9.40;1.88;;;21.90;92.30;;;;;;5116991;28;20039;-69
2022/10/12 12:04:44;;;;;;;7.43;1.92;;;22.00;92.40;;;;;;5116564;28;20424;-69
2022/10/12 12:07:52;;;;;;;7.07;1.23;;;21.80;91.10;;;;;;5116898;28;20058;-70
2022/10/12 12:10:29;;;;;;;7.93;1.50;;;21.80;92.10;;;;;;5068639;28;20352;-69
2022/10/12 12:13:19;;;;;;;6.22;1.48;;;22.00;92.40;;;;;;5116493;28;20043;-70
2022/10/12 12:15:48;;;;;;;8.65;1.52;;;22.40;91.70;;;;;;5116540;28;20083;-70
2022/10/12 12:18:20;;;;;;;5.30;1.20;;;22.70;92.30;;;;;;5116743;28;20333;-70
2022/10/12 12:20:45;;;;;;;7.72;1.27;;;22.80;90.90;;;;;;5098464;28;20386;-69
2022/10/12 12:23:25;;;;;;;8.30;1.55;;;23.00;91.30;;;;;;5115992;28;20043;-70
2022/10/12 12:26:10;;;;;;;8.38;1.40;;;22.90;90.10;;;;;;5116713;28;20114;-69
2022/10/12 12:28:50;;;;;;;8.40;1.40;;;22.70;90.40;;;;;;5116631;28;20043;-69
2022/10/12 12:31:22;;;;;;;7.30;1.80;;;22.70;90.10;;;;;;5116714;28;20042;-69
2022/10/12 12:33:59;;;;;;;7.60;1.50;;;22.60;89.20;;;;;;5116771;28;20054;-70
2022/10/12 12:36:33;;;;;;;6.80;1.63;;;22.60;90.50;;;;;;5116646;28;20359;-69
2022/10/12 12:39:00;;;;;;;6.45;1.55;;;22.50;90.20;;;;;;5120061;28;20027;-69
2022/10/12 12:41:45;;;;;;;12.77;1.67;;;22.80;90.10;;;;;;5120253;28;20318;-75
2022/10/12 12:44:29;;;;;;;5.18;1.20;;;23.20;90.90;;;;;;5120224;28;20043;-75
2022/10/12 12:46:55;;;;;;;7.88;1.77;;;23.50;90.80;;;;;;5119752;28;20493;-70
2022/10/12 12:49:43;;;;;;;8.27;1.63;;;23.60;90.20;;;;;;5119872;28;20036;-70
2022/10/12 12:52:26;;;;;;;6.97;1.50;;;23.80;90.50;;;;;;5119966;28;20040;-83
2022/10/12 12:55:29;;;;;;;8.50;2.00;;;23.50;90.60;;;;;;5084397;28;20044;-84
2022/10/12 12:58:09;;;;;;;8.35;1.55;;;22.60;90.50;;;;;;5084882;28;20031;-84
2022/10/12 13:01:09;;;;;;;6.45;1.42;;;22.40;90.20;;;;;;5084659;28;20035;-84
2022/10/12 13:03:47;;;;;;;9.45;1.83;;;21.80;90.40;;;;;;5084622;28;20036;-84
2022/10/12 13:06:56;;;;;;;11.20;1.48;;;21.40;90.60;;;;;;5101444;28;20508;-84
2022/10/12 13:09:42;;;;;;;7.88;1.80;;;21.60;90.60;;;;;;5119607;28;20040;-72
2022/10/12 13:12:10;;;;;;;;;;;21.40;90.20;;;;;;5119862;28;20032;-69
2022/10/12 13:15:21;;;;;;;6.20;1.42;;;21.80;90.90;;;;;;5119268;28;19923;-70